createdAt,value
2018-09-17T00:00:06.338Z,0.00
2018-09-17T00:01:06.636Z,0.00
2018-09-17T00:02:06.088Z,0.00
2018-09-17T00:03:07.205Z,0.00
2018-09-17T00:04:07.482Z,0.00
2018-09-17T00:05:07.929Z,0.00
2018-09-17T00:06:08.244Z,0.00
2018-09-17T00:07:08.560Z,0.00
2018-09-17T00:08:08.917Z,0.00
2018-09-17T00:08:17.309Z,0.00
2018-09-17T00:09:18.752Z,0.00
2018-09-17T00:10:19.583Z,0.00
2018-09-17T00:11:19.984Z,0.00
2018-09-17T00:12:20.330Z,0.00
2018-09-17T00:13:21.061Z,0.00
2018-09-17T00:14:21.460Z,0.00
2018-09-17T00:15:21.705Z,0.00
2018-09-17T00:16:21.992Z,0.00
2018-09-17T00:17:22.360Z,0.00
2018-09-17T00:18:23.175Z,0.00
2018-09-17T00:19:23.605Z,0.00
2018-09-17T00:20:23.966Z,0.00
2018-09-17T00:21:24.299Z,0.00
2018-09-17T00:22:24.994Z,0.00
2018-09-17T00:23:25.501Z,0.00
2018-09-17T00:24:25.946Z,0.00
2018-09-17T00:25:26.235Z,0.00
2018-09-17T00:26:26.524Z,0.00
2018-09-17T00:27:27.068Z,0.00
2018-09-17T00:28:27.365Z,0.00
2018-09-17T00:29:27.718Z,0.00
2018-09-17T00:30:28.013Z,0.00
2018-09-17T00:31:28.442Z,0.00
2018-09-17T00:32:28.833Z,0.00
2018-09-17T00:33:29.234Z,0.00
2018-09-17T00:34:29.906Z,0.00
2018-09-17T00:35:30.304Z,0.00
2018-09-17T00:36:30.657Z,0.00
2018-09-17T00:37:31.114Z,0.00
2018-09-17T00:38:31.492Z,0.00
2018-09-17T00:39:31.807Z,0.00
2018-09-17T00:40:32.140Z,0.00
2018-09-17T00:41:32.836Z,0.00
2018-09-17T00:42:33.105Z,0.00
2018-09-17T00:43:33.427Z,0.00
2018-09-17T00:44:33.867Z,0.00
2018-09-17T00:45:34.127Z,0.00
2018-09-17T00:46:34.483Z,0.00
2018-09-17T00:47:34.880Z,0.00
2018-09-17T00:48:35.174Z,0.00
2018-09-17T00:49:35.551Z,0.00
2018-09-17T00:50:35.813Z,0.00
2018-09-17T00:51:36.067Z,0.00
2018-09-17T00:52:36.636Z,0.00
2018-09-17T00:52:44.974Z,0.00
2018-09-17T00:53:46.257Z,0.00
2018-09-17T00:54:46.530Z,0.00
2018-09-17T00:55:46.920Z,0.00
2018-09-17T00:56:47.216Z,0.00
2018-09-17T00:57:46.872Z,0.00
2018-09-17T00:58:47.382Z,0.00
2018-09-17T00:59:48.762Z,0.00
2018-09-17T01:00:49.061Z,0.00
2018-09-17T01:01:49.378Z,0.00
2018-09-17T01:02:49.754Z,0.00
2018-09-17T01:03:50.073Z,0.00
2018-09-17T01:04:50.315Z,0.00
2018-09-17T01:05:50.655Z,0.00
2018-09-17T01:06:50.971Z,0.00
2018-09-17T01:07:51.330Z,0.00
2018-09-17T01:08:51.621Z,0.00
2018-09-17T01:09:52.361Z,0.00
2018-09-17T01:10:52.898Z,0.00
2018-09-17T01:11:53.202Z,0.00
2018-09-17T01:12:53.695Z,0.00
2018-09-17T01:13:54.169Z,0.00
2018-09-17T01:14:54.483Z,0.00
2018-09-17T01:15:54.793Z,0.00
2018-09-17T01:16:55.240Z,0.00
2018-09-17T01:17:55.737Z,0.00
2018-09-17T01:18:56.094Z,0.00
2018-09-17T01:19:56.339Z,0.00
2018-09-17T01:20:57.059Z,0.00
2018-09-17T01:21:57.452Z,0.00
2018-09-17T01:22:57.800Z,0.00
2018-09-17T01:23:58.631Z,0.00
2018-09-17T01:24:57.782Z,0.00
2018-09-17T01:25:59.121Z,0.00
2018-09-17T01:26:59.451Z,0.00
2018-09-17T01:27:59.827Z,0.00
2018-09-17T01:29:00.208Z,0.00
2018-09-17T01:30:00.584Z,0.00
2018-09-17T01:31:01.413Z,0.00
2018-09-17T01:32:01.721Z,0.00
2018-09-17T01:33:01.996Z,0.00
2018-09-17T01:34:02.352Z,0.00
2018-09-17T01:35:02.634Z,0.00
2018-09-17T01:36:02.867Z,0.00
2018-09-17T01:37:03.123Z,0.00
2018-09-17T01:38:03.448Z,0.00
2018-09-17T01:38:11.922Z,0.00
2018-09-17T01:39:13.123Z,0.00
2018-09-17T01:40:13.341Z,0.00
2018-09-17T01:41:13.908Z,0.00
2018-09-17T01:42:14.206Z,0.00
2018-09-17T01:43:14.493Z,0.00
2018-09-17T01:44:15.124Z,0.00
2018-09-17T01:45:15.442Z,0.00
2018-09-17T01:46:15.815Z,0.00
2018-09-17T01:47:15.061Z,0.00
2018-09-17T01:48:16.353Z,0.00
2018-09-17T01:49:16.857Z,0.00
2018-09-17T01:50:16.939Z,0.00
2018-09-17T01:51:17.217Z,0.00
2018-09-17T01:52:17.775Z,0.00
2018-09-17T01:53:18.079Z,0.00
2018-09-17T01:54:18.383Z,0.00
2018-09-17T01:55:18.712Z,0.00
2018-09-17T01:56:19.204Z,0.00
2018-09-17T01:57:19.485Z,0.00
2018-09-17T01:58:19.835Z,0.00
2018-09-17T01:59:20.169Z,0.00
2018-09-17T02:00:21.140Z,0.00
2018-09-17T02:01:21.838Z,0.00
2018-09-17T02:02:22.196Z,0.00
2018-09-17T02:03:22.584Z,0.00
2018-09-17T02:04:23.084Z,0.00
2018-09-17T02:05:23.535Z,0.00
2018-09-17T02:06:24.145Z,0.00
2018-09-17T02:07:24.383Z,0.00
2018-09-17T02:08:25.204Z,0.00
2018-09-17T02:09:25.560Z,0.00
2018-09-17T02:10:25.868Z,0.00
2018-09-17T02:11:26.188Z,0.00
2018-09-17T02:12:26.483Z,0.00
2018-09-17T02:13:26.774Z,0.00
2018-09-17T02:14:27.069Z,0.00
2018-09-17T02:15:27.475Z,0.00
2018-09-17T02:16:28.098Z,0.00
2018-09-17T02:17:28.378Z,0.00
2018-09-17T02:18:28.860Z,0.00
2018-09-17T02:19:29.285Z,0.00
2018-09-17T02:20:29.576Z,0.00
2018-09-17T02:21:30.022Z,0.00
2018-09-17T02:22:30.517Z,0.00
2018-09-17T02:23:30.853Z,0.00
2018-09-17T02:23:39.281Z,0.00
2018-09-17T02:24:40.531Z,0.00
2018-09-17T02:25:40.985Z,0.00
2018-09-17T02:26:41.312Z,0.00
2018-09-17T02:27:41.659Z,0.00
2018-09-17T02:28:42.142Z,0.00
2018-09-17T02:29:42.701Z,0.00
2018-09-17T02:30:43.001Z,0.00
2018-09-17T02:31:43.332Z,0.00
2018-09-17T02:32:42.680Z,0.00
2018-09-17T02:33:43.997Z,0.00
2018-09-17T02:34:44.859Z,0.00
2018-09-17T02:35:45.224Z,0.00
2018-09-17T02:36:45.518Z,0.00
2018-09-17T02:37:46.099Z,0.00
2018-09-17T02:38:46.533Z,0.00
2018-09-17T02:39:47.143Z,0.00
2018-09-17T02:40:47.295Z,0.00
2018-09-17T02:41:47.808Z,0.00
2018-09-17T02:42:48.351Z,0.00
2018-09-17T02:43:48.695Z,0.00
2018-09-17T02:44:49.078Z,0.00
2018-09-17T02:45:49.328Z,0.00
2018-09-17T02:46:49.690Z,0.00
2018-09-17T02:47:50.059Z,0.00
2018-09-17T02:48:50.321Z,0.00
2018-09-17T02:49:50.912Z,0.00
2018-09-17T02:50:51.316Z,0.00
2018-09-17T02:51:51.897Z,0.00
2018-09-17T02:52:52.332Z,0.00
2018-09-17T02:53:52.662Z,0.00
2018-09-17T02:54:52.915Z,0.00
2018-09-17T02:55:53.208Z,0.00
2018-09-17T02:56:53.706Z,0.00
2018-09-17T02:57:54.054Z,0.00
2018-09-17T02:58:54.381Z,0.00
2018-09-17T02:59:54.792Z,0.00
2018-09-17T03:00:55.139Z,0.00
2018-09-17T03:01:55.457Z,0.00
2018-09-17T03:02:55.753Z,0.00
2018-09-17T03:03:56.061Z,0.00
2018-09-17T03:04:56.349Z,0.00
2018-09-17T03:05:56.659Z,0.00
2018-09-17T03:06:57.240Z,0.00
2018-09-17T03:07:57.568Z,0.00
2018-09-17T03:08:05.651Z,0.00
2018-09-17T03:09:07.255Z,0.00
2018-09-17T03:10:07.562Z,0.00
2018-09-17T03:11:07.938Z,0.00
2018-09-17T03:12:08.364Z,0.00
2018-09-17T03:13:08.790Z,0.00
2018-09-17T03:14:09.277Z,0.00
2018-09-17T03:15:09.855Z,0.00
2018-09-17T03:16:10.080Z,0.00
2018-09-17T03:17:10.625Z,0.00
2018-09-17T03:18:10.918Z,0.00
2018-09-17T03:19:11.221Z,0.00
2018-09-17T03:20:11.509Z,0.00
2018-09-17T03:21:11.950Z,0.00
2018-09-17T03:22:12.304Z,0.00
2018-09-17T03:23:12.589Z,0.00
2018-09-17T03:24:13.248Z,0.00
2018-09-17T03:25:13.585Z,0.00
2018-09-17T03:26:13.922Z,0.00
2018-09-17T03:27:14.419Z,0.00
2018-09-17T03:28:14.930Z,0.00
2018-09-17T03:29:15.264Z,0.00
2018-09-17T03:30:15.586Z,0.00
2018-09-17T03:31:15.966Z,0.00
2018-09-17T03:32:16.327Z,0.00
2018-09-17T03:33:17.144Z,0.00
2018-09-17T03:34:17.510Z,0.00
2018-09-17T03:35:17.913Z,0.00
2018-09-17T03:36:18.264Z,0.00
2018-09-17T03:37:18.548Z,0.00
2018-09-17T03:38:19.004Z,0.00
2018-09-17T03:39:19.471Z,0.00
2018-09-17T03:40:20.069Z,0.00
2018-09-17T03:41:20.343Z,0.00
2018-09-17T03:42:20.429Z,0.00
2018-09-17T03:43:20.730Z,0.00
2018-09-17T03:44:21.245Z,0.00
2018-09-17T03:45:20.872Z,0.00
2018-09-17T03:46:22.158Z,0.00
2018-09-17T03:47:22.869Z,0.00
2018-09-17T03:48:23.090Z,0.00
2018-09-17T03:49:23.603Z,0.00
2018-09-17T03:50:24.112Z,0.00
2018-09-17T03:51:24.769Z,0.00
2018-09-17T03:52:25.371Z,0.00
2018-09-17T03:52:34.358Z,0.00
2018-09-17T03:53:34.957Z,0.00
2018-09-17T03:54:35.595Z,0.00
2018-09-17T03:55:36.385Z,0.00
2018-09-17T03:56:37.044Z,0.00
2018-09-17T03:57:37.576Z,0.00
2018-09-17T03:58:37.837Z,0.00
2018-09-17T03:59:38.190Z,0.00
2018-09-17T04:00:38.466Z,0.00
2018-09-17T04:01:38.970Z,0.00
2018-09-17T04:02:39.418Z,0.00
2018-09-17T04:03:39.750Z,0.00
2018-09-17T04:04:40.263Z,0.00
2018-09-17T04:05:40.791Z,0.00
2018-09-17T04:06:41.236Z,0.00
2018-09-17T04:07:41.892Z,0.00
2018-09-17T04:08:42.337Z,0.00
2018-09-17T04:09:42.916Z,0.00
2018-09-17T04:10:43.211Z,0.00
2018-09-17T04:11:43.520Z,0.00
2018-09-17T04:12:44.061Z,0.00
2018-09-17T04:13:44.448Z,0.00
2018-09-17T04:14:44.858Z,0.00
2018-09-17T04:15:45.316Z,0.05
2018-09-17T04:16:45.797Z,0.05
2018-09-17T04:17:46.224Z,0.05
2018-09-17T04:18:46.625Z,0.05
2018-09-17T04:19:45.921Z,0.05
2018-09-17T04:20:47.435Z,0.05
2018-09-17T04:21:47.835Z,0.05
2018-09-17T04:22:48.125Z,0.09
2018-09-17T04:23:48.478Z,0.09
2018-09-17T04:24:49.022Z,0.14
2018-09-17T04:25:49.335Z,0.18
2018-09-17T04:26:49.736Z,0.18
2018-09-17T04:27:50.281Z,0.22
2018-09-17T04:28:50.821Z,0.31
2018-09-17T04:29:51.101Z,0.31
2018-09-17T04:30:51.702Z,0.41
2018-09-17T04:31:52.335Z,0.50
2018-09-17T04:32:52.558Z,0.58
2018-09-17T04:33:53.428Z,0.76
2018-09-17T04:34:54.122Z,0.86
2018-09-17T04:35:54.423Z,1.12
2018-09-17T04:36:55.107Z,1.35
2018-09-17T04:37:03.496Z,1.35
2018-09-17T04:38:04.680Z,1.66
2018-09-17T04:39:04.961Z,1.98
2018-09-17T04:40:05.332Z,2.43
2018-09-17T04:41:06.028Z,3.02
2018-09-17T04:42:06.591Z,3.69
2018-09-17T04:43:07.129Z,4.45
2018-09-17T04:44:07.519Z,5.40
2018-09-17T04:45:08.028Z,6.57
2018-09-17T04:46:08.684Z,8.10
2018-09-17T04:47:09.170Z,9.99
2018-09-17T04:48:09.572Z,12.15
2018-09-17T04:49:09.960Z,14.76
2018-09-17T04:50:10.408Z,17.91
2018-09-17T04:51:09.766Z,21.51
2018-09-17T04:52:11.091Z,25.92
2018-09-17T04:53:11.542Z,31.32
2018-09-17T04:54:11.812Z,37.44
2018-09-17T04:55:12.198Z,44.64
2018-09-17T04:56:12.625Z,52.56
2018-09-17T04:57:12.990Z,61.20
2018-09-17T04:58:13.303Z,71.64
2018-09-17T04:59:13.718Z,84.60
2018-09-17T05:00:14.188Z,97.92
2018-09-17T05:01:14.770Z,111.60
2018-09-17T05:02:14.992Z,126.72
2018-09-17T05:03:15.335Z,143.28
2018-09-17T05:04:15.650Z,162.72
2018-09-17T05:05:15.941Z,182.88
2018-09-17T05:06:16.506Z,204.48
2018-09-17T05:07:16.798Z,226.08
2018-09-17T05:08:16.536Z,252.00
2018-09-17T05:09:17.939Z,276.48
2018-09-17T05:10:18.226Z,302.40
2018-09-17T05:11:18.483Z,325.44
2018-09-17T05:12:19.102Z,348.48
2018-09-17T05:13:19.685Z,374.40
2018-09-17T05:14:18.806Z,403.20
2018-09-17T05:15:20.131Z,434.88
2018-09-17T05:16:20.383Z,463.68
2018-09-17T05:17:20.681Z,498.24
2018-09-17T05:18:21.021Z,529.92
2018-09-17T05:19:21.624Z,564.48
2018-09-17T05:20:21.978Z,599.04
2018-09-17T05:21:22.732Z,630.72
2018-09-17T05:22:23.397Z,671.04
2018-09-17T05:23:23.912Z,705.60
2018-09-17T05:23:32.709Z,711.36
2018-09-17T05:24:33.413Z,743.04
2018-09-17T05:25:34.025Z,777.60
2018-09-17T05:26:34.583Z,817.92
2018-09-17T05:27:34.890Z,852.48
2018-09-17T05:28:35.230Z,887.04
2018-09-17T05:29:35.767Z,921.60
2018-09-17T05:30:36.154Z,956.16
2018-09-17T05:31:36.403Z,990.72
2018-09-17T05:32:36.879Z,1059.84
2018-09-17T05:33:37.267Z,1105.92
2018-09-17T05:34:37.714Z,1140.48
2018-09-17T05:35:38.300Z,1175.04
2018-09-17T05:36:38.605Z,1209.60
2018-09-17T05:37:38.915Z,1249.92
2018-09-17T05:38:39.455Z,1284.48
2018-09-17T05:39:40.185Z,1324.80
2018-09-17T05:40:40.560Z,1353.60
2018-09-17T05:41:40.842Z,1405.44
2018-09-17T05:42:41.246Z,1451.52
2018-09-17T05:43:41.675Z,1497.60
2018-09-17T05:44:42.785Z,1543.68
2018-09-17T05:45:42.067Z,1589.76
2018-09-17T05:46:42.284Z,1647.36
2018-09-17T05:47:42.957Z,1704.96
2018-09-17T05:48:43.424Z,1751.04
2018-09-17T05:49:43.639Z,1797.12
2018-09-17T05:50:43.990Z,1854.72
2018-09-17T05:51:44.532Z,1912.32
2018-09-17T05:52:44.840Z,1958.40
2018-09-17T05:53:45.325Z,2004.48
2018-09-17T05:54:45.928Z,2039.04
2018-09-17T05:55:46.360Z,2073.60
2018-09-17T05:56:46.640Z,2108.16
2018-09-17T05:57:47.182Z,2142.72
2018-09-17T05:58:47.527Z,2177.28
2018-09-17T05:59:47.798Z,2211.84
2018-09-17T06:00:48.102Z,2234.88
2018-09-17T06:01:48.542Z,2269.44
2018-09-17T06:02:48.835Z,2304.00
2018-09-17T06:03:49.797Z,2338.56
2018-09-17T06:04:50.125Z,2373.12
2018-09-17T06:05:50.449Z,2407.68
2018-09-17T06:06:49.798Z,2430.72
2018-09-17T06:07:50.191Z,2453.76
2018-09-17T06:08:51.739Z,2522.88
2018-09-17T06:09:52.257Z,2580.48
2018-09-17T06:10:51.406Z,2661.12
2018-09-17T06:10:59.837Z,2672.64
2018-09-17T06:12:00.087Z,2741.76
2018-09-17T06:13:01.378Z,2799.36
2018-09-17T06:14:01.734Z,2868.48
2018-09-17T06:15:02.162Z,2914.56
2018-09-17T06:16:02.883Z,2949.12
2018-09-17T06:17:03.180Z,2995.20
2018-09-17T06:18:03.731Z,3018.24
2018-09-17T06:19:03.961Z,3041.28
2018-09-17T06:20:04.324Z,3087.36
2018-09-17T06:21:04.631Z,3133.44
2018-09-17T06:22:04.944Z,3133.44
2018-09-17T06:23:05.293Z,3156.48
2018-09-17T06:24:05.834Z,3179.52
2018-09-17T06:25:06.172Z,3179.52
2018-09-17T06:26:06.580Z,3133.44
2018-09-17T06:27:07.253Z,3087.36
2018-09-17T06:28:07.825Z,3041.28
2018-09-17T06:29:08.628Z,3064.32
2018-09-17T06:30:09.326Z,3133.44
2018-09-17T06:31:09.679Z,3202.56
2018-09-17T06:32:09.979Z,3271.68
2018-09-17T06:33:10.561Z,3340.80
2018-09-17T06:34:10.819Z,3432.96
2018-09-17T06:35:11.140Z,3502.08
2018-09-17T06:36:11.563Z,3617.28
2018-09-17T06:37:12.175Z,3709.44
2018-09-17T06:38:12.689Z,3778.56
2018-09-17T06:39:13.176Z,3847.68
2018-09-17T06:40:13.739Z,3939.84
2018-09-17T06:41:14.179Z,4032.00
2018-09-17T06:42:14.577Z,4101.12
2018-09-17T06:43:14.938Z,4170.24
2018-09-17T06:44:15.314Z,4216.32
2018-09-17T06:45:15.937Z,4239.36
2018-09-17T06:46:16.301Z,4239.36
2018-09-17T06:47:16.572Z,4262.40
2018-09-17T06:48:16.850Z,4262.40
2018-09-17T06:49:17.121Z,4262.40
2018-09-17T06:50:17.472Z,4262.40
2018-09-17T06:51:17.763Z,4285.44
2018-09-17T06:52:17.005Z,4308.48
2018-09-17T06:53:18.285Z,4308.48
2018-09-17T06:54:18.542Z,4331.52
2018-09-17T06:55:19.006Z,4331.52
2018-09-17T06:55:27.437Z,4331.52
2018-09-17T06:56:28.693Z,4377.60
2018-09-17T06:57:29.211Z,4400.64
2018-09-17T06:58:29.572Z,4331.52
2018-09-17T06:59:29.883Z,4331.52
2018-09-17T07:00:30.284Z,4285.44
2018-09-17T07:01:30.708Z,4308.48
2018-09-17T07:02:31.073Z,4331.52
2018-09-17T07:03:31.631Z,4308.48
2018-09-17T07:04:31.831Z,4354.56
2018-09-17T07:05:32.282Z,4423.68
2018-09-17T07:06:33.167Z,4492.80
2018-09-17T07:07:33.558Z,4538.88
2018-09-17T07:08:33.822Z,4654.08
2018-09-17T07:09:34.609Z,4654.08
2018-09-17T07:10:34.937Z,4677.12
2018-09-17T07:11:35.257Z,4723.20
2018-09-17T07:12:35.538Z,4746.24
2018-09-17T07:13:36.261Z,4907.52
2018-09-17T07:14:36.625Z,5253.12
2018-09-17T07:15:36.932Z,5299.20
2018-09-17T07:16:37.187Z,5460.48
2018-09-17T07:17:37.602Z,5552.64
2018-09-17T07:18:37.902Z,5898.24
2018-09-17T07:19:38.398Z,6773.76
2018-09-17T07:20:38.651Z,7603.20
2018-09-17T07:21:38.981Z,9446.40
2018-09-17T07:22:39.387Z,11658.24
2018-09-17T07:23:39.733Z,13916.16
2018-09-17T07:24:40.043Z,12165.12
2018-09-17T07:25:40.307Z,14561.28
2018-09-17T07:26:40.725Z,13178.88
2018-09-17T07:27:41.075Z,11980.80
2018-09-17T07:28:40.417Z,11888.64
2018-09-17T07:29:41.423Z,13271.04
2018-09-17T07:30:41.914Z,13271.04
2018-09-17T07:31:41.194Z,13547.52
2018-09-17T07:32:42.523Z,14100.48
2018-09-17T07:33:42.848Z,15298.56
2018-09-17T07:34:43.096Z,15298.56
2018-09-17T07:35:43.384Z,15575.04
2018-09-17T07:36:43.793Z,16404.48
2018-09-17T07:37:44.105Z,16128.00
2018-09-17T07:38:44.526Z,14561.28
2018-09-17T07:39:45.011Z,15114.24
2018-09-17T07:40:45.543Z,14376.96
2018-09-17T07:40:53.877Z,14376.96
2018-09-17T07:41:55.129Z,15022.08
2018-09-17T07:42:55.548Z,15114.24
2018-09-17T07:43:55.811Z,15114.24
2018-09-17T07:44:56.065Z,14837.76
2018-09-17T07:45:56.403Z,13824.00
2018-09-17T07:46:56.699Z,14192.64
2018-09-17T07:47:57.392Z,14376.96
2018-09-17T07:48:56.791Z,14100.48
2018-09-17T07:49:58.679Z,13731.84
2018-09-17T07:50:58.933Z,14192.64
2018-09-17T07:51:59.251Z,14192.64
2018-09-17T07:52:59.676Z,12902.40
2018-09-17T07:53:58.987Z,14192.64
2018-09-17T07:55:00.243Z,14192.64
2018-09-17T07:56:00.543Z,14284.80
2018-09-17T07:57:00.851Z,14469.12
2018-09-17T07:58:01.665Z,14376.96
2018-09-17T07:59:02.177Z,12994.56
2018-09-17T08:00:01.472Z,13731.84
2018-09-17T08:01:03.146Z,13455.36
2018-09-17T08:02:03.420Z,14100.48
2018-09-17T08:03:03.789Z,13455.36
2018-09-17T08:04:04.156Z,11980.80
2018-09-17T08:05:04.454Z,14008.32
2018-09-17T08:06:05.005Z,14929.92
2018-09-17T08:07:05.346Z,15390.72
2018-09-17T08:08:05.637Z,16035.84
2018-09-17T08:09:05.811Z,17049.60
2018-09-17T08:10:06.145Z,18063.36
2018-09-17T08:11:06.408Z,18524.16
2018-09-17T08:12:07.056Z,20275.20
2018-09-17T08:13:07.587Z,21012.48
2018-09-17T08:14:07.728Z,22026.24
2018-09-17T08:15:08.051Z,21196.80
2018-09-17T08:16:08.669Z,22118.40
2018-09-17T08:17:09.067Z,20459.52
2018-09-17T08:18:08.556Z,20551.68
2018-09-17T08:19:10.042Z,19261.44
2018-09-17T08:20:10.371Z,17510.40
2018-09-17T08:21:10.802Z,18339.84
2018-09-17T08:22:11.189Z,18524.16
2018-09-17T08:23:11.494Z,18339.84
2018-09-17T08:24:12.084Z,18892.80
2018-09-17T08:25:12.829Z,18616.32
2018-09-17T08:26:13.312Z,18247.68
2018-09-17T08:27:13.660Z,18432.00
2018-09-17T08:27:21.708Z,17971.20
2018-09-17T08:28:23.083Z,19445.76
2018-09-17T08:29:23.371Z,19998.72
2018-09-17T08:30:23.813Z,20459.52
2018-09-17T08:31:24.432Z,21841.92
2018-09-17T08:32:23.785Z,23316.48
2018-09-17T08:33:25.048Z,23316.48
2018-09-17T08:34:25.489Z,24145.92
2018-09-17T08:35:25.846Z,25251.84
2018-09-17T08:36:26.602Z,26357.76
2018-09-17T08:37:27.012Z,26357.76
2018-09-17T08:38:27.354Z,25067.52
2018-09-17T08:39:27.614Z,25804.80
2018-09-17T08:40:28.106Z,23408.64
2018-09-17T08:41:28.467Z,22026.24
2018-09-17T08:42:28.748Z,23316.48
2018-09-17T08:43:29.051Z,22302.72
2018-09-17T08:44:29.380Z,23132.16
2018-09-17T08:45:29.876Z,24145.92
2018-09-17T08:46:29.335Z,23961.60
2018-09-17T08:47:29.611Z,24145.92
2018-09-17T08:48:31.507Z,23040.00
2018-09-17T08:49:31.825Z,23316.48
2018-09-17T08:50:32.076Z,23040.00
2018-09-17T08:51:32.308Z,24145.92
2018-09-17T08:52:32.671Z,24145.92
2018-09-17T08:53:32.994Z,23777.28
2018-09-17T08:54:33.226Z,24330.24
2018-09-17T08:55:33.507Z,26357.76
2018-09-17T08:56:33.228Z,27648.00
2018-09-17T08:57:34.674Z,28938.24
2018-09-17T08:58:34.999Z,29491.20
2018-09-17T08:59:35.363Z,29306.88
2018-09-17T09:00:35.637Z,29306.88
2018-09-17T09:01:36.407Z,29122.56
2018-09-17T09:02:36.990Z,29859.84
2018-09-17T09:03:37.266Z,30044.16
2018-09-17T09:04:38.545Z,29122.56
2018-09-17T09:05:37.791Z,28753.92
2018-09-17T09:06:38.069Z,28200.96
2018-09-17T09:07:38.556Z,28385.28
2018-09-17T09:08:38.861Z,28016.64
2018-09-17T09:09:39.546Z,27095.04
2018-09-17T09:10:39.859Z,26726.40
2018-09-17T09:11:40.181Z,26726.40
2018-09-17T09:12:40.466Z,26910.72
2018-09-17T09:13:40.785Z,27279.36
2018-09-17T09:14:41.104Z,27095.04
2018-09-17T09:14:49.438Z,27279.36
2018-09-17T09:15:50.643Z,26542.08
2018-09-17T09:16:50.992Z,25804.80
2018-09-17T09:17:51.447Z,27463.68
2018-09-17T09:18:51.824Z,28385.28
2018-09-17T09:19:52.168Z,29306.88
2018-09-17T09:20:52.456Z,29491.20
2018-09-17T09:21:52.855Z,29491.20
2018-09-17T09:22:53.371Z,29122.56
2018-09-17T09:23:53.662Z,29122.56
2018-09-17T09:24:54.567Z,29306.88
2018-09-17T09:25:55.001Z,29675.52
2018-09-17T09:26:55.258Z,30781.44
2018-09-17T09:27:55.627Z,31703.04
2018-09-17T09:28:55.950Z,33546.24
2018-09-17T09:29:56.419Z,33730.56
2018-09-17T09:30:57.219Z,34099.20
2018-09-17T09:31:56.534Z,31518.72
2018-09-17T09:32:58.255Z,30044.16
2018-09-17T09:33:58.627Z,28753.92
2018-09-17T09:34:58.875Z,30044.16
2018-09-17T09:35:59.230Z,31518.72
2018-09-17T09:36:59.488Z,32808.96
2018-09-17T09:38:00.127Z,33730.56
2018-09-17T09:38:59.439Z,33546.24
2018-09-17T09:40:01.268Z,33730.56
2018-09-17T09:41:01.959Z,33914.88
2018-09-17T09:42:02.346Z,34652.16
2018-09-17T09:43:02.803Z,35205.12
2018-09-17T09:44:03.489Z,34836.48
2018-09-17T09:45:03.825Z,35205.12
2018-09-17T09:46:04.401Z,34836.48
2018-09-17T09:47:05.084Z,34836.48
2018-09-17T09:48:03.973Z,35020.80
2018-09-17T09:49:05.656Z,35942.40
2018-09-17T09:50:06.373Z,36495.36
2018-09-17T09:51:07.051Z,37048.32
2018-09-17T09:52:09.138Z,37232.64
2018-09-17T09:53:07.496Z,37048.32
2018-09-17T09:54:08.249Z,36679.68
2018-09-17T09:55:08.324Z,36126.72
2018-09-17T09:56:09.983Z,35389.44
2018-09-17T09:57:09.503Z,35573.76
2018-09-17T09:58:09.656Z,35942.40
2018-09-17T09:59:10.332Z,35020.80
2018-09-17T10:00:10.720Z,35205.12
2018-09-17T10:01:11.438Z,35573.76
2018-09-17T10:02:12.065Z,34836.48
2018-09-17T10:03:11.938Z,33177.60
2018-09-17T10:04:13.045Z,32808.96
2018-09-17T10:05:13.698Z,34283.52
2018-09-17T10:06:13.177Z,35573.76
2018-09-17T10:07:14.405Z,36864.00
2018-09-17T10:08:14.526Z,37416.96
2018-09-17T10:09:16.540Z,37601.28
2018-09-17T10:10:16.002Z,37601.28
2018-09-17T10:11:17.706Z,37232.64
2018-09-17T10:13:50.604Z,36495.36
2018-09-17T10:14:51.109Z,36311.04
2018-09-17T10:15:52.111Z,38338.56
2018-09-17T10:16:51.173Z,39997.44
2018-09-17T10:17:51.299Z,41840.64
2018-09-17T10:18:52.965Z,40734.72
2018-09-17T10:19:52.663Z,41656.32
2018-09-17T10:20:53.202Z,39813.12
2018-09-17T10:21:54.584Z,39997.44
2018-09-17T10:22:55.027Z,37601.28
2018-09-17T10:23:54.911Z,37416.96
2018-09-17T10:24:56.579Z,37969.92
2018-09-17T10:25:56.191Z,36311.04
2018-09-17T10:26:56.679Z,37785.60
2018-09-17T10:27:57.009Z,38707.20
2018-09-17T10:28:56.793Z,34099.20
2018-09-17T10:29:58.396Z,38707.20
2018-09-17T10:30:57.572Z,30412.80
2018-09-17T10:31:58.925Z,31887.36
2018-09-17T10:32:58.973Z,39813.12
2018-09-17T10:33:59.502Z,37969.92
2018-09-17T10:35:00.083Z,38154.24
2018-09-17T10:36:00.637Z,37969.92
2018-09-17T10:37:01.483Z,35389.44
2018-09-17T10:38:01.798Z,33730.56
2018-09-17T10:39:02.430Z,34652.16
2018-09-17T10:40:02.806Z,34652.16
2018-09-17T10:41:03.160Z,35758.08
2018-09-17T10:42:03.494Z,35942.40
2018-09-17T10:43:03.778Z,37048.32
2018-09-17T10:44:04.084Z,38154.24
2018-09-17T10:45:04.440Z,38338.56
2018-09-17T10:46:04.738Z,38891.52
2018-09-17T10:47:05.032Z,40366.08
2018-09-17T10:48:05.467Z,40919.04
2018-09-17T10:49:05.749Z,41840.64
2018-09-17T10:50:06.035Z,41287.68
2018-09-17T10:51:06.414Z,39997.44
2018-09-17T10:52:06.975Z,39813.12
2018-09-17T10:53:07.286Z,38891.52
2018-09-17T10:54:07.587Z,38891.52
2018-09-17T10:55:07.909Z,38522.88
2018-09-17T10:56:08.246Z,38891.52
2018-09-17T10:57:09.199Z,39075.84
2018-09-17T10:58:09.498Z,39813.12
2018-09-17T10:59:09.885Z,39260.16
2018-09-17T11:00:09.352Z,37601.28
2018-09-17T11:01:10.704Z,36495.36
2018-09-17T11:02:11.280Z,35758.08
2018-09-17T11:03:11.571Z,33914.88
2018-09-17T11:04:11.869Z,32624.64
2018-09-17T11:05:12.435Z,31703.04
2018-09-17T11:05:20.759Z,31703.04
2018-09-17T11:06:22.080Z,35205.12
2018-09-17T11:07:22.600Z,34836.48
2018-09-17T11:08:22.919Z,33177.60
2018-09-17T11:09:22.323Z,31334.40
2018-09-17T11:10:23.953Z,30412.80
2018-09-17T11:11:24.211Z,29122.56
2018-09-17T11:12:24.471Z,32808.96
2018-09-17T11:13:25.114Z,37601.28
2018-09-17T11:14:25.607Z,37785.60
2018-09-17T11:15:24.984Z,37785.60
2018-09-17T11:16:26.055Z,35389.44
2018-09-17T11:17:26.419Z,34652.16
2018-09-17T11:18:25.843Z,39260.16
2018-09-17T11:19:27.281Z,39260.16
2018-09-17T11:20:28.009Z,39628.80
2018-09-17T11:21:28.862Z,42393.60
2018-09-17T11:22:29.289Z,43130.88
2018-09-17T11:23:29.594Z,43315.20
2018-09-17T11:24:30.301Z,42209.28
2018-09-17T11:25:30.703Z,41472.00
2018-09-17T11:26:31.215Z,42577.92
2018-09-17T11:27:31.624Z,40919.04
2018-09-17T11:28:32.002Z,42393.60
2018-09-17T11:29:32.752Z,43499.52
2018-09-17T11:30:33.323Z,43868.16
2018-09-17T11:31:33.951Z,43315.20
2018-09-17T11:32:33.259Z,43868.16
2018-09-17T11:33:34.910Z,44236.80
2018-09-17T11:34:35.430Z,44421.12
2018-09-17T11:35:35.890Z,44236.80
2018-09-17T11:36:36.214Z,44421.12
2018-09-17T11:37:35.596Z,44789.76
2018-09-17T11:38:36.935Z,45158.40
2018-09-17T11:39:37.322Z,45158.40
2018-09-17T11:40:38.168Z,45711.36
2018-09-17T11:41:38.541Z,45342.72
2018-09-17T11:42:38.991Z,45711.36
2018-09-17T11:43:39.379Z,45342.72
2018-09-17T11:44:38.729Z,45158.40
2018-09-17T11:45:40.063Z,44605.44
2018-09-17T11:46:40.393Z,44421.12
2018-09-17T11:47:39.942Z,43315.20
2018-09-17T11:48:41.334Z,42762.24
2018-09-17T11:49:41.879Z,41840.64
2018-09-17T11:50:42.295Z,40181.76
2018-09-17T11:51:42.597Z,39813.12
2018-09-17T11:52:43.095Z,39628.80
2018-09-17T11:53:43.847Z,42024.96
2018-09-17T11:54:44.603Z,42946.56
2018-09-17T11:54:53.000Z,42762.24
2018-09-17T11:55:53.245Z,38338.56
2018-09-17T11:56:54.873Z,37048.32
2018-09-17T11:57:55.305Z,38338.56
2018-09-17T11:58:55.632Z,39075.84
2018-09-17T11:59:56.048Z,33361.92
2018-09-17T12:00:56.514Z,37416.96
2018-09-17T12:01:57.066Z,39997.44
2018-09-17T12:02:56.354Z,37048.32
2018-09-17T12:03:57.881Z,37969.92
2018-09-17T12:04:58.633Z,40919.04
2018-09-17T12:05:58.925Z,36864.00
2018-09-17T12:06:59.375Z,32440.32
2018-09-17T12:08:00.176Z,33730.56
2018-09-17T12:09:00.585Z,37048.32
2018-09-17T12:10:01.247Z,34652.16
2018-09-17T12:11:02.045Z,37048.32
2018-09-17T12:12:02.574Z,40734.72
2018-09-17T12:13:02.852Z,41840.64
2018-09-17T12:14:03.233Z,36311.04
2018-09-17T12:15:04.146Z,33730.56
2018-09-17T12:16:04.733Z,37232.64
2018-09-17T12:17:05.324Z,39813.12
2018-09-17T12:18:05.745Z,38707.20
2018-09-17T12:19:06.169Z,38338.56